Gardiner, Washington
Current Conditions -  °F | °C
As of 7:53 AM on Wednesday 26 Nov 2014 (Local Time) from KCLM Reporting Station
Overcast Overcast  
Wind Chill: 47°   Ceiling: 3600
Heat Index: 47°   Visibility: 10mi
Dew Point: 45°   Wind: 0mph
Humidity: 93%   Direction: NA
Pressure: 30.08"   Gusts: NA
Location:  48.0015°N, 123.09°W
Report Text: KCLM 261553Z AUTO 00000KT 10SM BKN036 OVC048 08/07 A3008 RMK AO2 SLP186 T00830072 $
Loading
Personal Weather Stations






























Interactive Weather Map New forecast layout! Learn more

10-Day Weather Forecast

Advertisements
Track Severe Weather on mobile